Time;durP1;ratioP1;P1;durP2;ratioP2;P2;SDS_P1;SDS_P2;PMS_P1;PMS_P2;Temp;Humidity;BMP_temperature;BMP_pressure;BME280_temperature;BME280_humidity;BME280_pressure;Samples;Min_cycle;Max_cycle;Signal;HPM_P1;HPM_P2
2022/07/04 00:02:16;;;;;;;29.87;22.03;;;;;;;17.75;100.00;100257.08;1737134;81;22131;-57
2022/07/04 00:04:44;;;;;;;30.77;23.53;;;;;;;17.72;100.00;100254.34;1728032;82;21616;-55
2022/07/04 00:07:11;;;;;;;25.97;21.87;;;;;;;17.72;100.00;100260.14;1723738;82;21012;-56
2022/07/04 00:09:40;;;;;;;29.43;23.80;;;;;;;17.71;100.00;100256.70;1726849;82;21022;-54
2022/07/04 00:12:08;;;;;;;32.47;24.47;;;;;;;17.72;100.00;100253.03;1717744;82;21274;-58
2022/07/04 00:14:35;;;;;;;31.83;23.60;;;;;;;17.69;100.00;100252.20;1738834;82;21066;-55
2022/07/04 00:17:02;;;;;;;30.73;23.33;;;;;;;17.70;100.00;100256.43;1735974;81;21005;-58
2022/07/04 00:19:32;;;;;;;28.83;22.60;;;;;;;17.73;100.00;100250.70;1739257;81;21586;-56
2022/07/04 00:21:59;;;;;;;27.07;21.63;;;;;;;17.82;100.00;100250.38;1728041;81;21571;-56
2022/07/04 00:24:26;;;;;;;29.07;22.60;;;;;;;17.84;100.00;100246.49;1737742;81;21584;-55
2022/07/04 00:26:54;;;;;;;28.53;20.93;;;;;;;17.92;100.00;100240.86;1726508;82;21036;-54
2022/07/04 00:29:21;;;;;;;27.10;21.10;;;;;;;17.94;100.00;100235.34;1722214;82;21053;-55
2022/07/04 00:31:48;;;;;;;23.23;18.27;;;;;;;18.03;100.00;100241.05;1725491;82;20968;-57
2022/07/04 00:34:15;;;;;;;23.80;19.97;;;;;;;18.05;100.00;100239.80;1729577;82;21513;-55
2022/07/04 00:36:43;;;;;;;24.87;19.93;;;;;;;18.07;100.00;100244.34;1723980;81;21778;-54
2022/07/04 00:39:10;;;;;;;29.67;19.13;;;;;;;18.11;100.00;100245.99;1727073;82;20995;-55
2022/07/04 00:41:37;;;;;;;25.97;19.53;;;;;;;18.12;100.00;100247.06;1719235;81;21013;-55
2022/07/04 00:44:09;;;;;;;24.13;16.37;;;;;;;18.12;100.00;100254.98;1725305;82;21103;-63
2022/07/04 00:46:36;;;;;;;20.77;14.90;;;;;;;18.14;100.00;100259.48;1721728;82;21330;-55
2022/07/04 00:49:05;;;;;;;21.03;15.97;;;;;;;18.09;100.00;100269.95;1723973;82;22224;-55
2022/07/04 00:51:32;;;;;;;20.50;14.27;;;;;;;18.04;100.00;100275.13;1725472;82;21417;-60
2022/07/04 00:54:00;;;;;;;21.10;15.83;;;;;;;18.01;100.00;100274.27;1714514;82;21454;-54
2022/07/04 00:56:27;;;;;;;18.90;15.37;;;;;;;18.01;100.00;100271.63;1740287;82;21461;-62
2022/07/04 00:58:54;;;;;;;20.23;15.53;;;;;;;18.00;100.00;100270.03;1718256;81;21108;-54
2022/07/04 01:01:22;;;;;;;19.63;15.40;;;;;;;18.00;100.00;100277.94;1737623;82;21121;-55
2022/07/04 01:03:49;;;;;;;18.53;15.27;;;;;;;18.05;100.00;100279.36;1732819;81;21493;-63
2022/07/04 01:06:16;;;;;;;21.27;14.63;;;;;;;18.02;100.00;100276.38;1709869;82;21075;-62
2022/07/04 01:08:44;;;;;;;21.53;14.53;;;;;;;18.02;100.00;100269.27;1720105;82;20886;-55
2022/07/04 01:11:12;;;;;;;17.83;13.77;;;;;;;18.04;100.00;100270.38;1709978;82;20980;-56
2022/07/04 01:13:42;;;;;;;16.37;11.70;;;;;;;18.00;100.00;100271.35;1718359;82;21154;-64
2022/07/04 01:16:10;;;;;;;14.43;11.08;;;;;;;17.99;100.00;100271.88;1715676;82;21501;-55
2022/07/04 01:18:37;;;;;;;16.43;12.17;;;;;;;17.96;100.00;100278.92;1686363;83;21034;-57
2022/07/04 01:21:05;;;;;;;16.97;11.77;;;;;;;17.97;100.00;100271.80;1711789;82;21484;-56
2022/07/04 01:23:38;;;;;;;18.80;12.20;;;;;;;17.97;100.00;100271.28;1710114;82;21010;-57
2022/07/04 01:26:05;;;;;;;16.07;12.30;;;;;;;17.98;100.00;100273.41;1701438;82;21117;-56
2022/07/04 01:28:33;;;;;;;16.87;12.57;;;;;;;17.98;100.00;100270.77;1712132;82;21083;-56
2022/07/04 01:31:00;;;;;;;18.03;12.83;;;;;;;18.00;100.00;100272.67;1720514;82;21585;-56
2022/07/04 01:33:27;;;;;;;17.77;13.37;;;;;;;18.07;100.00;100268.56;1710083;82;21502;-56
2022/07/04 01:35:54;;;;;;;15.77;11.77;;;;;;;18.08;100.00;100263.08;1711859;82;21250;-56
2022/07/04 01:38:22;;;;;;;16.70;12.23;;;;;;;18.18;100.00;100264.61;1721577;82;21075;-63
2022/07/04 01:40:49;;;;;;;24.03;12.97;;;;;;;18.27;100.00;100261.61;1712678;82;21108;-56
2022/07/04 01:43:17;;;;;;;15.87;12.33;;;;;;;18.28;100.00;100263.20;1724952;82;21713;-55
2022/07/04 01:45:46;;;;;;;15.97;12.30;;;;;;;18.33;100.00;100264.61;1709886;82;21041;-54
2022/07/04 01:48:13;;;;;;;15.77;12.30;;;;;;;18.35;100.00;100265.20;1716976;82;21125;-56
2022/07/04 01:50:40;;;;;;;15.60;12.30;;;;;;;18.34;100.00;100262.28;1720425;82;21168;-57
2022/07/04 01:53:07;;;;;;;16.17;11.97;;;;;;;18.34;100.00;100264.40;1716095;82;21138;-59
2022/07/04 01:55:35;;;;;;;15.83;11.80;;;;;;;18.33;100.00;100260.66;1713367;82;21329;-54
2022/07/04 01:58:02;;;;;;;18.50;12.80;;;;;;;18.31;100.00;100262.74;1715768;82;21597;-54
2022/07/04 02:03:17;;;;;;;18.17;14.27;;;;;;;18.32;100.00;100261.18;1690641;83;21191;-55
2022/07/04 02:05:44;;;;;;;18.23;12.17;;;;;;;18.52;100.00;100262.09;1699877;82;21897;-55
2022/07/04 02:08:11;;;;;;;18.27;11.67;;;;;;;18.80;100.00;100256.57;1706323;83;21438;-55
2022/07/04 02:10:38;;;;;;;14.43;11.13;;;;;;;18.97;100.00;100257.39;1708759;83;20983;-56
2022/07/04 02:13:06;;;;;;;19.10;12.17;;;;;;;19.19;100.00;100253.53;1698954;83;20957;-60
2022/07/04 02:15:35;;;;;;;13.90;11.20;;;;;;;19.45;100.00;100254.20;1706063;83;21322;-55
2022/07/04 02:18:04;;;;;;;12.00;10.20;;;;;;;19.66;100.00;100257.17;1693755;83;21033;-55
2022/07/04 02:20:31;;;;;;;17.37;10.97;;;;;;;19.95;100.00;100253.87;1703549;83;21011;-56
2022/07/04 02:22:58;;;;;;;14.87;10.53;;;;;;;20.27;100.00;100247.93;1692263;83;21498;-56
2022/07/04 02:25:25;;;;;;;16.00;11.33;;;;;;;20.59;100.00;100251.48;1701848;83;21980;-57
2022/07/04 02:27:54;;;;;;;13.97;11.00;;;;;;;20.92;100.00;100247.03;1712343;83;21266;-55
2022/07/04 02:30:21;;;;;;;13.00;11.30;;;;;;;21.32;100.00;100249.73;1711223;83;21067;-55
2022/07/04 02:32:48;;;;;;;14.17;10.83;;;;;;;21.68;100.00;100253.99;1697962;83;21079;-62
2022/07/04 02:35:15;;;;;;;11.40;10.03;;;;;;;22.02;100.00;100251.78;1705465;83;22123;-55
2022/07/04 02:37:43;;;;;;;15.53;10.97;;;;;;;22.36;100.00;100247.42;1710408;83;21365;-56
2022/07/04 02:40:12;;;;;;;12.70;11.33;;;;;;;22.73;100.00;100248.05;1706337;83;22193;-55
2022/07/04 02:42:40;;;;;;;14.13;10.47;;;;;;;23.08;100.00;100243.05;1693976;83;20961;-56
2022/07/04 02:45:08;;;;;;;13.10;10.10;;;;;;;23.42;100.00;100242.75;1705726;83;21306;-55
2022/07/04 02:47:36;;;;;;;12.40;9.50;;;;;;;23.76;100.00;100247.50;1688453;83;21077;-54
2022/07/04 02:50:04;;;;;;;13.93;9.70;;;;;;;24.14;100.00;100246.57;1696280;83;21133;-55
2022/07/04 02:52:31;;;;;;;12.43;9.70;;;;;;;24.63;100.00;100245.80;1694211;83;21136;-58
2022/07/04 02:54:58;;;;;;;14.07;10.13;;;;;;;25.11;94.23;100249.99;1692511;83;20993;-56
2022/07/04 02:57:26;;;;;;;12.80;9.97;;;;;;;25.55;87.01;100248.52;1709208;83;21122;-55
2022/07/04 02:59:53;;;;;;;13.43;9.83;;;;;;;25.97;82.14;100260.38;1703965;83;21087;-55
2022/07/04 03:02:21;;;;;;;14.30;11.22;;;;;;;26.40;77.32;100261.17;1692187;83;21012;-56
2022/07/04 03:04:49;;;;;;;12.88;10.48;;;;;;;26.91;72.02;100255.09;1696027;82;21124;-56
2022/07/04 03:07:17;;;;;;;14.30;9.75;;;;;;;27.37;66.64;100264.26;1711422;83;21084;-56
2022/07/04 03:09:44;;;;;;;12.37;10.08;;;;;;;27.71;62.94;100255.87;1717361;82;21915;-56
2022/07/04 03:12:12;;;;;;;11.80;10.40;;;;;;;28.10;60.60;100262.62;1709091;83;21084;-63
2022/07/04 03:14:40;;;;;;;10.50;9.00;;;;;;;28.48;58.55;100265.84;1714317;83;21040;-55
2022/07/04 03:17:07;;;;;;;13.80;9.80;;;;;;;28.94;56.34;100266.66;1706668;83;21123;-56
2022/07/04 03:19:35;;;;;;;13.13;10.63;;;;;;;29.43;53.68;100262.23;1692847;83;21061;-55
2022/07/04 03:22:02;;;;;;;14.13;10.50;;;;;;;29.73;51.37;100268.16;1708852;83;21334;-56
2022/07/04 03:24:29;;;;;;;12.05;10.23;;;;;;;30.08;50.18;100270.97;1672738;84;21010;-56
2022/07/04 03:26:57;;;;;;;12.03;10.78;;;;;;;30.51;48.93;100266.21;1689820;83;21087;-56
2022/07/04 03:29:25;;;;;;;12.47;10.70;;;;;;;30.96;47.61;100265.89;1687583;83;20982;-57
2022/07/04 03:31:52;;;;;;;14.83;12.50;;;;;;;31.46;46.26;100258.57;1715817;82;21446;-56
2022/07/04 03:34:21;;;;;;;16.35;13.25;;;;;;;31.94;44.21;100262.25;1721305;82;21031;-59
2022/07/04 03:36:47;;;;;;;13.62;10.00;;;;;;;32.25;43.04;100263.80;1668016;84;21066;-55
2022/07/04 03:39:15;;;;;;;11.68;9.90;;;;;;;32.38;42.17;100264.64;1700232;82;21433;-57
2022/07/04 03:41:42;;;;;;;11.45;9.13;;;;;;;32.59;41.24;100260.06;1677532;83;22380;-56
2022/07/04 03:44:10;;;;;;;11.15;8.98;;;;;;;32.80;40.55;100265.41;1685127;83;21452;-55
2022/07/04 03:46:38;;;;;;;13.68;9.75;;;;;;;32.98;40.51;100257.19;1711042;83;20991;-56
2022/07/04 03:49:05;;;;;;;10.85;9.78;;;;;;;33.37;39.82;100254.43;1678631;84;21498;-55
2022/07/04 03:51:32;;;;;;;8.95;8.05;;;;;;;33.74;39.03;100257.17;1714648;82;21012;-61
2022/07/04 03:53:59;;;;;;;11.28;7.90;;;;;;;34.13;38.56;100255.14;1709149;82;21164;-55
2022/07/04 03:56:27;;;;;;;9.33;7.37;;;;;;;34.54;37.77;100255.14;1704908;83;20999;-59
2022/07/04 03:58:56;;;;;;;9.18;7.12;;;;;;;34.90;36.69;100256.89;1707025;82;22110;-56
2022/07/04 04:01:23;;;;;;;8.18;7.35;;;;;;;35.08;36.38;100260.88;1706514;82;21857;-60
2022/07/04 04:06:36;;;;;;;9.38;7.47;;;;;;;35.32;35.81;100267.27;1728810;81;21902;-58
2022/07/04 04:09:03;;;;;;;10.38;7.50;;;;;;;35.50;35.21;100265.81;1738456;81;21023;-55
2022/07/04 04:11:31;;;;;;;9.65;8.03;;;;;;;35.74;35.29;100269.45;1720951;81;20933;-58
2022/07/04 04:13:58;;;;;;;11.30;10.10;;;;;;;36.13;34.96;100255.98;1727664;81;21223;-62
2022/07/04 04:16:25;;;;;;;13.03;10.10;;;;;;;36.55;33.97;100256.08;1726163;81;20980;-55
2022/07/04 04:18:52;;;;;;;10.53;9.43;;;;;;;36.89;33.49;100257.67;1729700;81;21269;-57
2022/07/04 04:21:19;;;;;;;11.97;9.98;;;;;;;37.17;33.08;100256.07;1738381;81;20997;-59
2022/07/04 04:23:47;;;;;;;13.95;10.43;;;;;;;37.49;32.43;100256.59;1726393;81;21366;-56
2022/07/04 04:26:15;;;;;;;14.65;11.10;;;;;;;37.86;31.85;100251.31;1738406;81;20900;-58
2022/07/04 04:28:43;;;;;;;16.10;10.85;;;;;;;38.18;31.23;100256.41;1743462;81;21364;-56
2022/07/04 04:31:09;;;;;;;15.43;11.53;;;;;;;38.32;30.79;100251.72;1743428;81;22116;-55
2022/07/04 04:33:37;;;;;;;12.40;9.98;;;;;;;38.58;30.17;100257.69;1736211;81;21039;-57
2022/07/04 04:36:05;;;;;;;13.28;11.88;;;;;;;38.80;29.85;100262.23;1731339;81;21955;-56
2022/07/04 04:38:32;;;;;;;13.28;11.80;;;;;;;39.04;29.45;100258.16;1735859;81;21422;-55
2022/07/04 04:40:59;;;;;;;14.80;11.95;;;;;;;39.37;29.29;100262.74;1728383;81;20961;-56
2022/07/04 04:43:27;;;;;;;12.68;11.40;;;;;;;39.72;28.66;100260.66;1736139;81;21274;-57
2022/07/04 04:45:54;;;;;;;12.37;11.08;;;;;;;40.02;28.45;100257.70;1737616;81;21490;-63
2022/07/04 04:48:22;;;;;;;14.70;11.83;;;;;;;40.32;27.86;100256.88;1734711;81;21309;-55
2022/07/04 04:50:49;;;;;;;13.68;11.83;;;;;;;40.50;27.66;100253.39;1739022;81;20984;-56
2022/07/04 04:53:16;;;;;;;13.93;11.57;;;;;;;40.71;27.58;100251.33;1727424;81;21041;-56
2022/07/04 04:55:44;;;;;;;14.10;11.70;;;;;;;40.81;27.06;100250.57;1723769;81;21267;-57
2022/07/04 04:58:12;;;;;;;15.40;11.68;;;;;;;40.99;27.05;100245.94;1727046;81;21471;-56
2022/07/04 05:00:39;;;;;;;13.27;11.37;;;;;;;41.29;26.62;100250.97;1737693;81;21091;-56
2022/07/04 05:03:06;;;;;;;14.65;12.03;;;;;;;41.62;26.41;100245.48;1731659;81;21067;-56
2022/07/04 05:05:34;;;;;;;14.87;12.23;;;;;;;41.91;26.11;100243.48;1732267;81;21081;-60
2022/07/04 05:08:01;;;;;;;13.70;12.00;;;;;;;42.13;25.61;100247.70;1689279;83;21599;-64
2022/07/04 05:10:28;;;;;;;13.93;12.63;;;;;;;42.20;25.61;100249.00;1659959;84;22323;-56
2022/07/04 05:12:55;;;;;;;13.88;12.25;;;;;;;42.20;25.61;100249.00;1675245;84;21087;-55
2022/07/04 05:15:23;;;;;;;16.32;12.13;;;;;;;42.13;25.35;100254.55;1729276;81;20983;-64
2022/07/04 05:17:50;;;;;;;13.10;11.22;;;;;;;42.25;24.79;100251.38;1719184;81;20950;-57
2022/07/04 05:20:17;;;;;;;12.45;11.12;;;;;;;42.34;25.07;100247.41;1720438;81;21453;-56
2022/07/04 05:22:44;;;;;;;13.40;12.00;;;;;;;42.53;25.27;100252.39;1720912;81;20988;-56
2022/07/04 05:25:13;;;;;;;12.80;11.50;;;;;;;42.75;24.61;100246.98;1723945;81;21494;-56
2022/07/04 05:27:40;;;;;;;12.85;11.65;;;;;;;42.89;24.57;100248.84;1737352;81;21674;-58
2022/07/04 05:30:09;;;;;;;12.47;11.18;;;;;;;43.11;24.38;100238.48;1698550;83;21058;-58
2022/07/04 05:32:39;;;;;;;13.75;11.28;;;;;;;43.31;24.30;100240.67;1695981;83;21252;-58
2022/07/04 05:35:08;;;;;;;11.93;10.78;;;;;;;43.50;24.07;100243.45;1684675;85;21006;-56
2022/07/04 05:37:36;;;;;;;13.45;10.85;;;;;;;43.58;24.01;100242.19;1684066;84;21108;-56
2022/07/04 05:40:04;;;;;;;12.80;11.35;;;;;;;43.69;23.81;100238.73;1676379;85;21035;-56
2022/07/04 05:42:34;;;;;;;12.75;11.38;;;;;;;43.84;23.60;100236.59;1683099;83;21520;-57
2022/07/04 05:45:01;;;;;;;14.20;11.65;;;;;;;43.93;23.46;100235.52;1675369;84;21579;-56
2022/07/04 05:47:28;;;;;;;14.38;11.90;;;;;;;44.03;23.60;100237.36;1687894;83;21047;-56
2022/07/04 05:49:58;;;;;;;12.28;11.05;;;;;;;44.24;23.30;100235.51;1687534;83;21143;-62
2022/07/04 05:52:25;;;;;;;12.53;11.10;;;;;;;44.39;23.09;100241.78;1704840;83;21323;-57
2022/07/04 05:54:51;;;;;;;12.60;11.43;;;;;;;44.57;23.04;100241.53;1691022;83;21438;-56
2022/07/04 05:57:19;;;;;;;12.55;11.35;;;;;;;44.69;22.96;100237.45;1703004;83;22199;-55
2022/07/04 05:59:46;;;;;;;12.15;10.98;;;;;;;44.84;22.85;100236.63;1683128;84;21015;-65
2022/07/04 06:02:15;;;;;;;13.43;11.70;;;;;;;44.84;22.85;100232.50;1726766;81;21086;-58
2022/07/04 06:04:43;;;;;;;12.07;10.85;;;;;;;44.81;22.62;100231.95;1732689;81;21118;-56
2022/07/04 06:07:11;;;;;;;11.50;10.35;;;;;;;44.77;22.53;100232.61;1727395;81;21149;-57
2022/07/04 06:09:39;;;;;;;14.87;10.38;;;;;;;44.66;22.44;100232.17;1736225;81;21168;-56
2022/07/04 06:12:07;;;;;;;10.63;9.58;;;;;;;44.79;22.47;100230.23;1722387;81;20986;-62
2022/07/04 06:14:35;;;;;;;12.23;11.05;;;;;;;44.97;22.21;100229.34;1728685;81;21529;-57
2022/07/04 06:17:03;;;;;;;10.53;9.53;;;;;;;45.03;21.69;100229.63;1698953;83;21138;-56
2022/07/04 06:19:31;;;;;;;11.85;10.43;;;;;;;44.72;22.28;100223.47;1687071;84;21022;-57
2022/07/04 06:21:59;;;;;;;10.72;9.20;;;;;;;44.55;22.35;100224.66;1733993;82;22070;-59
2022/07/04 06:24:27;;;;;;;12.13;9.70;;;;;;;44.38;22.87;100227.09;1722551;81;21476;-57
2022/07/04 06:26:54;;;;;;;9.98;8.98;;;;;;;44.54;21.94;100220.97;1730536;81;21259;-56
2022/07/04 06:29:22;;;;;;;10.53;9.18;;;;;;;44.70;21.91;100223.09;1743258;81;20967;-56
2022/07/04 06:31:49;;;;;;;11.20;9.90;;;;;;;44.77;21.50;100219.63;1733151;81;21077;-60
2022/07/04 06:37:02;;;;;;;11.08;9.95;;;;;;;44.60;22.18;100229.70;1702807;83;21024;-57
2022/07/04 06:39:30;;;;;;;11.43;10.20;;;;;;;44.78;22.05;100221.21;1712122;83;21656;-59
2022/07/04 06:41:57;;;;;;;11.88;10.68;;;;;;;44.96;21.88;100226.39;1699586;83;21078;-63
2022/07/04 06:44:24;;;;;;;10.65;9.65;;;;;;;45.07;21.78;100218.76;1679850;84;20976;-56
2022/07/04 06:46:53;;;;;;;12.03;10.23;;;;;;;45.31;21.16;100214.02;1732429;81;21235;-58
2022/07/04 06:49:20;;;;;;;22.10;10.53;;;;;;;45.45;20.90;100215.73;1721158;81;21084;-63
2022/07/04 06:51:47;;;;;;;19.00;9.68;;;;;;;45.30;21.24;100210.30;1723714;81;21494;-57
2022/07/04 06:54:15;;;;;;;10.38;9.30;;;;;;;45.28;20.70;100207.98;1720249;81;21035;-58
2022/07/04 06:56:42;;;;;;;10.70;9.63;;;;;;;45.32;20.63;100213.41;1725166;81;21350;-56
2022/07/04 06:59:10;;;;;;;10.98;9.80;;;;;;;45.01;20.27;100210.80;1726370;81;21212;-65
2022/07/04 07:01:37;;;;;;;11.65;10.53;;;;;;;44.17;21.44;100215.77;1736647;81;20900;-57
2022/07/04 07:04:04;;;;;;;16.67;14.47;;;;;;;44.05;21.06;100214.36;1735591;81;21466;-63
2022/07/04 07:06:31;;;;;;;17.37;15.60;;;;;;;43.92;21.18;100216.12;1730515;81;20964;-57
2022/07/04 07:08:58;;;;;;;18.20;14.43;;;;;;;43.41;21.31;100208.98;1726709;82;21359;-56
2022/07/04 07:11:27;;;;;;;19.02;13.15;;;;;;;42.83;22.46;100213.43;1720866;81;21789;-57
2022/07/04 07:13:55;;;;;;;17.90;15.25;;;;;;;42.51;22.26;100209.55;1722169;82;21085;-56
2022/07/04 07:16:25;;;;;;;18.67;16.48;;;;;;;42.69;22.31;100215.69;1731199;81;20881;-59
2022/07/04 07:18:52;;;;;;;18.65;15.90;;;;;;;42.57;21.86;100209.29;1721566;82;21453;-58
2022/07/04 07:21:20;;;;;;;19.05;14.58;;;;;;;42.48;22.34;100204.86;1727066;81;20965;-55
2022/07/04 07:23:47;;;;;;;21.33;17.75;;;;;;;42.35;22.18;100202.39;1715098;82;21157;-55
2022/07/04 07:26:14;;;;;;;22.50;16.37;;;;;;;41.95;22.64;100204.55;1727632;82;21034;-59
2022/07/04 07:28:41;;;;;;;22.22;18.48;;;;;;;41.85;23.27;100209.47;1714805;82;21074;-56
2022/07/04 07:31:09;;;;;;;25.57;20.77;;;;;;;41.96;22.17;100206.09;1723401;82;21082;-57
2022/07/04 07:33:37;;;;;;;26.33;22.52;;;;;;;41.46;22.74;100201.55;1716163;81;21560;-57
2022/07/04 07:36:07;;;;;;;32.67;26.80;;;;;;;40.95;23.83;100207.41;1720632;82;21127;-56
2022/07/04 07:38:33;;;;;;;33.08;29.48;;;;;;;40.88;24.33;100200.01;1725651;82;21344;-60
2022/07/04 07:41:01;;;;;;;37.35;29.98;;;;;;;40.98;23.98;100202.53;1716257;82;21072;-58
2022/07/04 07:43:29;;;;;;;35.05;29.05;;;;;;;40.98;23.87;100201.97;1713188;82;21127;-56
2022/07/04 07:45:56;;;;;;;36.50;31.02;;;;;;;41.03;23.83;100198.05;1734806;82;21003;-56
2022/07/04 07:48:24;;;;;;;39.63;34.92;;;;;;;40.97;23.59;100195.51;1735318;81;22148;-57
2022/07/04 07:50:53;;;;;;;41.25;35.78;;;;;;;40.70;23.99;100190.43;1718761;82;21514;-61
2022/07/04 07:53:20;;;;;;;45.12;35.85;;;;;;;40.67;24.17;100193.94;1724718;81;21405;-57
2022/07/04 07:55:47;;;;;;;42.73;34.45;;;;;;;40.44;24.48;100197.59;1746121;81;20983;-56
2022/07/04 07:58:15;;;;;;;41.35;31.80;;;;;;;40.19;24.64;100206.48;1724540;82;20942;-56
2022/07/04 08:00:42;;;;;;;36.30;31.60;;;;;;;40.02;24.80;100205.83;1728023;82;21164;-60
2022/07/04 08:05:56;;;;;;;37.17;32.67;;;;;;;38.77;26.04;100204.94;1718468;82;21044;-56
2022/07/04 08:08:23;;;;;;;40.88;32.55;;;;;;;38.26;27.46;100195.44;1710692;82;21101;-58
2022/07/04 08:10:51;;;;;;;39.35;28.87;;;;;;;38.09;27.31;100196.03;1718330;82;21026;-56
2022/07/04 08:13:19;;;;;;;30.35;26.37;;;;;;;38.13;26.95;100199.00;1713273;82;21237;-57
2022/07/04 08:15:48;;;;;;;13.13;10.70;;;;;;;38.46;27.06;100200.17;1716686;82;21562;-56
2022/07/04 08:18:17;;;;;;;6.78;5.35;;;;;;;38.87;25.37;100199.63;1720450;82;21055;-63
2022/07/04 08:20:44;;;;;;;6.67;4.55;;;;;;;38.75;24.61;100191.67;1717337;82;21848;-57
2022/07/04 08:23:12;;;;;;;6.92;5.12;;;;;;;38.06;25.33;100194.05;1715574;82;21440;-57
2022/07/04 08:25:39;;;;;;;5.03;4.40;;;;;;;37.55;26.83;100195.31;1732094;82;21157;-55
2022/07/04 08:28:07;;;;;;;6.33;4.15;;;;;;;37.43;26.33;100185.99;1709871;82;20939;-64
2022/07/04 08:30:34;;;;;;;5.08;4.10;;;;;;;37.63;25.40;100183.95;1712673;82;21083;-56
2022/07/04 08:33:02;;;;;;;5.75;4.33;;;;;;;37.89;25.70;100182.59;1710424;82;21147;-56
2022/07/04 08:35:30;;;;;;;6.92;4.80;;;;;;;38.15;25.61;100182.28;1686032;83;21104;-56
2022/07/04 08:37:58;;;;;;;5.08;3.90;;;;;;;38.40;24.73;100188.81;1726516;82;22088;-55
2022/07/04 08:40:29;;;;;;;4.30;3.90;;;;;;;38.83;23.92;100182.46;1722285;82;21059;-64
2022/07/04 08:42:56;;;;;;;4.45;4.05;;;;;;;39.08;23.87;100177.77;1713645;82;21056;-58
2022/07/04 08:45:27;;;;;;;4.92;4.05;;;;;;;39.49;23.70;100185.28;1685697;83;21062;-56
2022/07/04 08:48:06;;;;;;;6.25;4.30;;;;;;;39.95;23.27;100172.45;1721228;82;21492;-56
2022/07/04 08:50:41;;;;;;;4.70;4.20;;;;;;;40.13;22.42;100178.02;1710269;82;22340;-63
2022/07/04 08:53:16;;;;;;;4.30;3.60;;;;;;;40.42;22.14;100173.96;1712701;82;21861;-59
2022/07/04 08:58:33;;;;;;;5.30;4.50;;;;;;;40.42;22.91;100171.23;1732448;82;21122;-58
2022/07/04 09:01:05;;;;;;;5.37;4.80;;;;;;;40.64;22.73;100170.11;1722814;82;20858;-56
2022/07/04 09:03:33;;;;;;;4.72;3.95;;;;;;;40.87;21.42;100160.75;1716987;82;21244;-59
2022/07/04 09:06:00;;;;;;;5.65;4.08;;;;;;;40.71;22.65;100167.98;1716535;82;21059;-62
2022/07/04 09:08:29;;;;;;;5.03;4.08;;;;;;;40.63;21.80;100164.46;1692218;83;21177;-56
2022/07/04 09:10:56;;;;;;;5.35;3.92;;;;;;;40.54;21.97;100162.09;1693353;83;21116;-56
2022/07/04 09:13:24;;;;;;;7.87;4.22;;;;;;;40.72;22.19;100160.74;1707696;83;21524;-56
2022/07/04 09:15:53;;;;;;;6.05;4.10;;;;;;;40.69;21.62;100157.45;1698902;83;21283;-63
2022/07/04 09:18:32;;;;;;;5.00;3.58;;;;;;;40.64;22.56;100162.51;1676597;83;21075;-58
2022/07/04 09:21:05;;;;;;;5.05;4.17;;;;;;;40.75;22.66;100162.70;1708018;83;21015;-56
2022/07/04 09:23:36;;;;;;;4.75;4.28;;;;;;;41.17;22.59;100164.45;1694787;83;20984;-59
2022/07/04 09:26:13;;;;;;;5.00;4.05;;;;;;;41.64;21.44;100161.82;1691402;83;21914;-56
2022/07/04 09:28:57;;;;;;;5.80;4.65;;;;;;;41.91;21.05;100168.19;1695246;83;22340;-58
2022/07/04 09:31:26;;;;;;;4.75;3.80;;;;;;;41.89;21.24;100167.20;1693265;83;21019;-63
2022/07/04 09:34:04;;;;;;;4.40;4.00;;;;;;;41.65;21.44;100163.38;1695665;83;21079;-57
2022/07/04 09:36:33;;;;;;;8.40;4.85;;;;;;;41.08;21.31;100163.50;1707094;83;21466;-56
2022/07/04 09:39:17;;;;;;;4.42;3.90;;;;;;;40.29;22.65;100167.51;1694463;83;20906;-64
2022/07/04 09:42:01;;;;;;;8.58;4.92;;;;;;;40.00;21.97;100173.44;1697505;83;21246;-56
2022/07/04 09:44:49;;;;;;;5.40;4.15;;;;;;;39.42;21.67;100164.78;1688707;83;21025;-56
2022/07/04 09:47:27;;;;;;;8.93;4.90;;;;;;;39.07;21.90;100157.13;1688492;83;21020;-57
2022/07/04 09:50:10;;;;;;;7.42;4.62;;;;;;;38.87;21.94;100153.84;1704151;83;21076;-56
2022/07/04 09:53:00;;;;;;;12.43;4.65;;;;;;;39.14;21.21;100147.06;1697669;83;21416;-57
2022/07/04 09:55:33;;;;;;;8.15;4.30;;;;;;;39.60;21.29;100143.83;1696533;83;22243;-63
2022/07/04 09:58:10;;;;;;;4.85;4.00;;;;;;;40.17;20.54;100139.20;1689796;83;21114;-56
2022/07/04 10:00:43;;;;;;;5.75;3.83;;;;;;;40.49;20.98;100139.83;1691481;83;21087;-58
2022/07/04 10:03:18;;;;;;;5.70;4.00;;;;;;;40.25;21.75;100138.64;1694479;83;21067;-65
2022/07/04 10:05:46;;;;;;;5.08;3.87;;;;;;;39.69;22.12;100148.18;1681000;84;21495;-57
2022/07/04 10:08:13;;;;;;;5.50;4.72;;;;;;;39.48;22.72;100143.39;1703459;82;21113;-57
2022/07/04 10:10:42;;;;;;;4.58;4.17;;;;;;;39.44;21.91;100139.84;1665057;83;21533;-57
2022/07/04 10:13:11;;;;;;;5.53;4.10;;;;;;;39.24;22.04;100137.98;1657615;85;21476;-63
2022/07/04 10:15:41;;;;;;;4.78;4.17;;;;;;;39.37;22.29;100130.47;1717051;81;21859;-57
2022/07/04 10:18:09;;;;;;;5.13;4.27;;;;;;;39.29;21.29;100134.91;1652910;85;21079;-59
2022/07/04 10:20:37;;;;;;;5.90;4.22;;;;;;;38.88;21.87;100134.41;1687547;82;21375;-65
2022/07/04 10:23:07;;;;;;;5.12;4.10;;;;;;;38.94;22.50;100130.16;1697850;82;21045;-65
2022/07/04 10:25:34;;;;;;;5.77;4.47;;;;;;;39.39;22.08;100124.04;1688719;82;21082;-59
2022/07/04 10:28:03;;;;;;;7.00;5.95;;;;;;;39.78;21.06;100127.57;1697336;82;20999;-58
2022/07/04 10:30:34;;;;;;;6.90;6.20;;;;;;;39.90;20.53;100116.89;1712918;83;21059;-59
2022/07/04 10:33:04;;;;;;;7.08;5.72;;;;;;;39.83;20.49;100114.91;1699020;82;21474;-58
2022/07/04 10:35:50;;;;;;;8.60;6.80;;;;;;;39.73;20.69;100121.10;1687418;82;21011;-58
2022/07/04 10:38:18;;;;;;;7.40;6.12;;;;;;;39.45;20.19;100119.60;1698294;82;21489;-61
2022/07/04 10:40:56;;;;;;;6.97;5.05;;;;;;;39.20;21.55;100113.39;1712517;83;21098;-57
2022/07/04 10:43:37;;;;;;;7.37;5.50;;;;;;;39.48;20.91;100115.53;1691630;82;20950;-57
2022/07/04 10:46:25;;;;;;;7.37;5.55;;;;;;;39.78;20.85;100115.29;1687496;82;49723;-61
2022/07/04 10:49:07;;;;;;;7.97;4.80;;;;;;;39.96;20.33;100113.18;1687111;82;20947;-59
2022/07/04 10:51:53;;;;;;;6.75;4.15;;;;;;;39.93;20.23;100112.58;1680276;83;21493;-58
2022/07/04 10:54:38;;;;;;;4.90;4.20;;;;;;;39.60;21.02;100112.46;1709734;82;21098;-57
2022/07/04 10:57:22;;;;;;;8.65;5.53;;;;;;;38.89;22.08;100115.53;1689501;83;21008;-56
2022/07/04 10:59:59;;;;;;;6.28;4.90;;;;;;;38.10;22.05;100117.30;1702976;82;21268;-57
2022/07/04 11:02:31;;;;;;;6.60;4.62;;;;;;;37.53;22.96;100114.66;1698772;82;21059;-66
2022/07/04 11:05:12;;;;;;;6.67;4.78;;;;;;;37.10;23.21;100119.48;1696450;82;22094;-56
2022/07/04 11:07:45;;;;;;;5.47;4.75;;;;;;;36.66;23.62;100123.22;1687884;82;21063;-57
2022/07/04 11:10:21;;;;;;;6.87;5.97;;;;;;;36.21;24.87;100118.71;1713786;82;20974;-58
2022/07/04 11:12:57;;;;;;;6.30;5.53;;;;;;;36.20;24.90;100120.44;1705363;83;21081;-56
2022/07/04 11:15:35;;;;;;;6.97;4.70;;;;;;;36.42;23.95;100119.69;1732216;82;21078;-57
2022/07/04 11:18:12;;;;;;;;;;;;;;;36.61;23.78;100111.30;1720816;81;20967;-59
2022/07/04 11:20:38;;;;;;;5.50;4.90;;;;;;;36.77;23.46;100111.95;1723458;81;20140;-57
2022/07/04 11:23:11;;;;;;;7.42;6.22;;;;;;;37.01;23.65;100111.60;1720657;81;20948;-61
2022/07/04 11:25:41;;;;;;;10.23;9.13;;;;;;;37.39;23.40;100103.56;1727636;82;22466;-58
2022/07/04 11:28:32;;;;;;;10.85;9.03;;;;;;;37.69;23.48;100102.22;1690821;83;20996;-57
2022/07/04 11:31:01;;;;;;;12.65;9.95;;;;;;;37.98;23.26;100095.98;1719744;82;21014;-57
2022/07/04 11:33:30;;;;;;;;;;;;;;;38.39;22.50;100106.15;1730831;81;21047;-57
2022/07/04 11:36:20;;;;;;;9.60;8.53;;;;;;;38.71;22.38;100103.69;1721350;81;20157;-57
2022/07/04 11:39:00;;;;;;;13.30;9.88;;;;;;;39.03;22.12;100105.90;1729561;81;21814;-61